sensor_id;sensor_type;location;lat;lon;timestamp;pressure;altitude;pressure_sealevel;temperature;humidity
20368;BME280;10343;52.402;9.796;2023-04-20T00:00:30;101498.84;;;17.02;39.79
20368;BME280;10343;52.402;9.796;2023-04-20T00:02:59;101494.84;;;16.90;40.46
20368;BME280;10343;52.402;9.796;2023-04-20T00:05:27;101493.81;;;16.68;41.05
20368;BME280;10343;52.402;9.796;2023-04-20T00:07:57;101487.66;;;16.13;40.95
20368;BME280;10343;52.402;9.796;2023-04-20T00:10:27;101495.03;;;15.77;41.98
20368;BME280;10343;52.402;9.796;2023-04-20T00:12:56;101490.91;;;15.96;41.05
20368;BME280;10343;52.402;9.796;2023-04-20T00:15:24;101488.94;;;16.02;41.50
20368;BME280;10343;52.402;9.796;2023-04-20T00:17:52;101489.34;;;16.68;40.33
20368;BME280;10343;52.402;9.796;2023-04-20T00:20:29;101478.25;;;17.04;39.70
20368;BME280;10343;52.402;9.796;2023-04-20T00:23:00;101488.16;;;15.41;42.31
20368;BME280;10343;52.402;9.796;2023-04-20T00:25:29;101479.09;;;16.29;40.84
20368;BME280;10343;52.402;9.796;2023-04-20T00:27:59;101478.56;;;15.04;42.58
20368;BME280;10343;52.402;9.796;2023-04-20T00:30:27;101477.66;;;15.35;42.18
20368;BME280;10343;52.402;9.796;2023-04-20T00:32:56;101469.13;;;15.81;41.21
20368;BME280;10343;52.402;9.796;2023-04-20T00:35:24;101463.28;;;15.68;42.42
20368;BME280;10343;52.402;9.796;2023-04-20T00:38:01;101472.34;;;15.63;42.33
20368;BME280;10343;52.402;9.796;2023-04-20T00:40:30;101473.94;;;15.09;42.87
20368;BME280;10343;52.402;9.796;2023-04-20T00:43:09;101473.03;;;16.24;40.71
20368;BME280;10343;52.402;9.796;2023-04-20T00:45:37;101468.03;;;16.15;40.78
20368;BME280;10343;52.402;9.796;2023-04-20T00:48:06;101460.66;;;16.72;39.59
20368;BME280;10343;52.402;9.796;2023-04-20T00:50:36;101459.56;;;16.00;41.13
20368;BME280;10343;52.402;9.796;2023-04-20T00:53:06;101460.94;;;16.39;40.52
20368;BME280;10343;52.402;9.796;2023-04-20T00:55:36;101462.34;;;16.74;39.70
20368;BME280;10343;52.402;9.796;2023-04-20T00:58:04;101453.78;;;16.90;39.20
20368;BME280;10343;52.402;9.796;2023-04-20T01:00:34;101456.69;;;15.78;41.40
20368;BME280;10343;52.402;9.796;2023-04-20T01:03:03;101456.78;;;16.55;39.90
20368;BME280;10343;52.402;9.796;2023-04-20T01:05:32;101450.44;;;16.58;39.39
20368;BME280;10343;52.402;9.796;2023-04-20T01:08:00;101451.19;;;15.56;41.37
20368;BME280;10343;52.402;9.796;2023-04-20T01:10:29;101446.06;;;15.76;41.51
20368;BME280;10343;52.402;9.796;2023-04-20T01:12:57;101443.59;;;16.74;39.96
20368;BME280;10343;52.402;9.796;2023-04-20T01:15:25;101443.84;;;16.18;40.58
20368;BME280;10343;52.402;9.796;2023-04-20T01:17:55;101436.41;;;15.99;41.00
20368;BME280;10343;52.402;9.796;2023-04-20T01:20:23;101427.84;;;16.41;40.68
20368;BME280;10343;52.402;9.796;2023-04-20T01:22:53;101426.63;;;16.75;39.82
20368;BME280;10343;52.402;9.796;2023-04-20T01:25:21;101429.88;;;15.83;41.29
20368;BME280;10343;52.402;9.796;2023-04-20T01:27:52;101422.78;;;16.83;39.76
20368;BME280;10343;52.402;9.796;2023-04-20T01:30:21;101424.72;;;15.75;41.97
20368;BME280;10343;52.402;9.796;2023-04-20T01:32:50;101420.59;;;15.93;41.13
20368;BME280;10343;52.402;9.796;2023-04-20T01:35:18;101419.69;;;16.44;40.81
20368;BME280;10343;52.402;9.796;2023-04-20T01:37:46;101415.75;;;16.55;40.59
20368;BME280;10343;52.402;9.796;2023-04-20T01:40:15;101404.44;;;16.23;41.00
20368;BME280;10343;52.402;9.796;2023-04-20T01:42:43;101403.75;;;16.41;40.26
20368;BME280;10343;52.402;9.796;2023-04-20T01:45:11;101401.75;;;16.97;39.76
20368;BME280;10343;52.402;9.796;2023-04-20T01:47:39;101397.06;;;17.02;39.88
20368;BME280;10343;52.402;9.796;2023-04-20T01:50:11;101395.50;;;16.22;40.51
20368;BME280;10343;52.402;9.796;2023-04-20T01:52:39;101398.97;;;15.72;41.96
20368;BME280;10343;52.402;9.796;2023-04-20T01:55:08;101399.69;;;16.55;40.88
20368;BME280;10343;52.402;9.796;2023-04-20T01:57:38;101380.38;;;15.96;41.34
20368;BME280;10343;52.402;9.796;2023-04-20T02:00:07;101387.03;;;15.29;43.31
20368;BME280;10343;52.402;9.796;2023-04-20T02:02:44;101386.53;;;15.71;42.37
20368;BME280;10343;52.402;9.796;2023-04-20T02:05:14;101384.69;;;16.00;41.35
20368;BME280;10343;52.402;9.796;2023-04-20T02:07:42;101387.56;;;16.44;40.93
20368;BME280;10343;52.402;9.796;2023-04-20T02:10:10;101380.56;;;16.42;40.70
20368;BME280;10343;52.402;9.796;2023-04-20T02:12:39;101388.00;;;16.34;40.94
20368;BME280;10343;52.402;9.796;2023-04-20T02:15:08;101383.63;;;17.26;39.60
20368;BME280;10343;52.402;9.796;2023-04-20T02:17:36;101370.81;;;17.56;38.90
20368;BME280;10343;52.402;9.796;2023-04-20T02:20:05;101380.84;;;16.58;40.50
20368;BME280;10343;52.402;9.796;2023-04-20T02:22:35;101386.63;;;16.22;41.23
20368;BME280;10343;52.402;9.796;2023-04-20T02:25:05;101381.91;;;16.77;40.57
20368;BME280;10343;52.402;9.796;2023-04-20T02:27:33;101368.09;;;16.41;41.99
20368;BME280;10343;52.402;9.796;2023-04-20T02:30:05;101379.78;;;16.86;40.54
20368;BME280;10343;52.402;9.796;2023-04-20T02:32:34;101377.13;;;16.62;40.96
20368;BME280;10343;52.402;9.796;2023-04-20T02:35:02;101369.84;;;16.17;41.60
20368;BME280;10343;52.402;9.796;2023-04-20T02:37:31;101374.03;;;16.24;41.43
20368;BME280;10343;52.402;9.796;2023-04-20T02:39:59;101379.53;;;15.40;42.96
20368;BME280;10343;52.402;9.796;2023-04-20T02:42:28;101376.91;;;15.39;43.61
20368;BME280;10343;52.402;9.796;2023-04-20T02:44:58;101372.81;;;16.09;42.20
20368;BME280;10343;52.402;9.796;2023-04-20T02:47:27;101379.13;;;16.06;42.32
20368;BME280;10343;52.402;9.796;2023-04-20T02:49:55;101378.03;;;16.61;40.76
20368;BME280;10343;52.402;9.796;2023-04-20T02:52:23;101371.97;;;16.32;41.86
20368;BME280;10343;52.402;9.796;2023-04-20T02:54:55;101368.31;;;16.35;41.68
20368;BME280;10343;52.402;9.796;2023-04-20T02:57:23;101364.88;;;15.79;42.40
20368;BME280;10343;52.402;9.796;2023-04-20T02:59:53;101359.91;;;15.95;42.53
20368;BME280;10343;52.402;9.796;2023-04-20T03:02:38;101351.53;;;17.24;40.20
20368;BME280;10343;52.402;9.796;2023-04-20T03:05:10;101361.50;;;16.26;41.65
20368;BME280;10343;52.402;9.796;2023-04-20T03:07:43;101361.41;;;16.53;41.52
20368;BME280;10343;52.402;9.796;2023-04-20T03:10:12;101358.91;;;16.72;41.15
20368;BME280;10343;52.402;9.796;2023-04-20T03:12:55;101357.72;;;16.32;41.53
20368;BME280;10343;52.402;9.796;2023-04-20T03:15:42;101353.63;;;17.16;40.37
20368;BME280;10343;52.402;9.796;2023-04-20T03:18:24;101359.31;;;16.61;41.12
20368;BME280;10343;52.402;9.796;2023-04-20T03:20:52;101359.09;;;16.18;41.58
20368;BME280;10343;52.402;9.796;2023-04-20T03:23:21;101350.53;;;16.08;42.16
20368;BME280;10343;52.402;9.796;2023-04-20T03:25:49;101357.72;;;16.79;40.51
20368;BME280;10343;52.402;9.796;2023-04-20T03:28:41;101360.19;;;17.31;39.90
20368;BME280;10343;52.402;9.796;2023-04-20T03:31:12;101359.31;;;17.08;39.96
20368;BME280;10343;52.402;9.796;2023-04-20T03:33:42;101365.06;;;17.21;39.60
20368;BME280;10343;52.402;9.796;2023-04-20T03:36:10;101368.38;;;16.57;40.66
20368;BME280;10343;52.402;9.796;2023-04-20T03:38:38;101368.25;;;16.36;41.21
20368;BME280;10343;52.402;9.796;2023-04-20T03:41:07;101379.06;;;16.33;41.86
20368;BME280;10343;52.402;9.796;2023-04-20T03:43:35;101365.53;;;16.85;40.28
20368;BME280;10343;52.402;9.796;2023-04-20T03:46:03;101361.66;;;15.96;42.13
20368;BME280;10343;52.402;9.796;2023-04-20T03:48:31;101373.44;;;16.16;41.94
20368;BME280;10343;52.402;9.796;2023-04-20T03:51:01;101366.56;;;16.08;41.52
20368;BME280;10343;52.402;9.796;2023-04-20T03:53:30;101367.66;;;17.01;40.11
20368;BME280;10343;52.402;9.796;2023-04-20T03:55:59;101365.94;;;16.74;40.12
20368;BME280;10343;52.402;9.796;2023-04-20T03:58:27;101371.72;;;16.15;41.54
20368;BME280;10343;52.402;9.796;2023-04-20T04:01:07;101364.78;;;16.34;41.13
20368;BME280;10343;52.402;9.796;2023-04-20T04:03:38;101361.34;;;16.54;41.03
20368;BME280;10343;52.402;9.796;2023-04-20T04:06:10;101366.78;;;17.00;40.21
20368;BME280;10343;52.402;9.796;2023-04-20T04:08:39;101369.28;;;17.27;39.38
20368;BME280;10343;52.402;9.796;2023-04-20T04:11:07;101355.31;;;17.41;39.02
20368;BME280;10343;52.402;9.796;2023-04-20T04:13:35;101357.06;;;17.64;39.34
20368;BME280;10343;52.402;9.796;2023-04-20T04:16:06;101367.06;;;18.24;37.91
20368;BME280;10343;52.402;9.796;2023-04-20T04:18:34;101366.03;;;17.41;39.42
20368;BME280;10343;52.402;9.796;2023-04-20T04:21:09;101365.44;;;18.20;38.09
20368;BME280;10343;52.402;9.796;2023-04-20T04:23:40;101375.75;;;16.99;39.93
20368;BME280;10343;52.402;9.796;2023-04-20T04:26:22;101376.13;;;16.16;42.13
20368;BME280;10343;52.402;9.796;2023-04-20T04:28:51;101360.88;;;17.36;40.47
20368;BME280;10343;52.402;9.796;2023-04-20T04:31:20;101368.53;;;16.28;41.64
20368;BME280;10343;52.402;9.796;2023-04-20T04:33:50;101367.97;;;15.93;42.48
20368;BME280;10343;52.402;9.796;2023-04-20T04:36:28;101368.00;;;16.91;40.85
20368;BME280;10343;52.402;9.796;2023-04-20T04:38:57;101364.13;;;17.22;40.52
20368;BME280;10343;52.402;9.796;2023-04-20T04:41:26;101361.63;;;17.18;40.32
20368;BME280;10343;52.402;9.796;2023-04-20T04:44:05;101358.25;;;17.57;39.59
20368;BME280;10343;52.402;9.796;2023-04-20T04:46:34;101368.91;;;16.67;41.40
20368;BME280;10343;52.402;9.796;2023-04-20T04:49:02;101358.75;;;17.44;40.25
20368;BME280;10343;52.402;9.796;2023-04-20T04:51:32;101356.16;;;16.50;41.86
20368;BME280;10343;52.402;9.796;2023-04-20T04:54:00;101360.25;;;16.84;41.26
20368;BME280;10343;52.402;9.796;2023-04-20T04:56:28;101364.97;;;16.77;41.56
20368;BME280;10343;52.402;9.796;2023-04-20T04:58:56;101367.97;;;16.93;41.38
20368;BME280;10343;52.402;9.796;2023-04-20T05:01:24;101375.72;;;17.45;40.23
20368;BME280;10343;52.402;9.796;2023-04-20T05:03:52;101368.34;;;16.82;41.20
20368;BME280;10343;52.402;9.796;2023-04-20T05:06:21;101363.91;;;17.49;39.78
20368;BME280;10343;52.402;9.796;2023-04-20T05:08:50;101370.69;;;17.37;40.70
20368;BME280;10343;52.402;9.796;2023-04-20T05:11:18;101376.53;;;17.90;39.53
20368;BME280;10343;52.402;9.796;2023-04-20T05:13:46;101378.25;;;17.70;40.08
20368;BME280;10343;52.402;9.796;2023-04-20T05:16:15;101381.75;;;17.28;40.53
20368;BME280;10343;52.402;9.796;2023-04-20T05:18:43;101387.34;;;17.22;40.54
20368;BME280;10343;52.402;9.796;2023-04-20T05:21:11;101380.56;;;17.57;39.95
20368;BME280;10343;52.402;9.796;2023-04-20T05:23:39;101388.88;;;17.29;40.69
20368;BME280;10343;52.402;9.796;2023-04-20T05:26:09;101382.25;;;17.15;41.09
20368;BME280;10343;52.402;9.796;2023-04-20T05:28:40;101383.69;;;17.46;40.58
20368;BME280;10343;52.402;9.796;2023-04-20T05:31:08;101392.22;;;17.34;40.47
20368;BME280;10343;52.402;9.796;2023-04-20T05:33:36;101391.06;;;16.95;41.16
20368;BME280;10343;52.402;9.796;2023-04-20T05:36:07;101382.69;;;17.49;40.23
20368;BME280;10343;52.402;9.796;2023-04-20T05:38:35;101382.88;;;17.22;41.29
20368;BME280;10343;52.402;9.796;2023-04-20T05:41:03;101391.25;;;17.79;39.70
20368;BME280;10343;52.402;9.796;2023-04-20T05:43:33;101394.91;;;17.78;40.02
20368;BME280;10343;52.402;9.796;2023-04-20T05:46:01;101392.78;;;18.48;38.85
20368;BME280;10343;52.402;9.796;2023-04-20T05:48:29;101399.91;;;18.08;39.31
20368;BME280;10343;52.402;9.796;2023-04-20T05:50:57;101400.00;;;18.67;38.03
20368;BME280;10343;52.402;9.796;2023-04-20T05:53:25;101405.84;;;18.56;38.24
20368;BME280;10343;52.402;9.796;2023-04-20T05:55:53;101397.28;;;18.07;39.03
20368;BME280;10343;52.402;9.796;2023-04-20T05:58:21;101407.72;;;17.49;40.26
20368;BME280;10343;52.402;9.796;2023-04-20T06:00:51;101400.28;;;19.00;37.72
20368;BME280;10343;52.402;9.796;2023-04-20T06:03:20;101413.16;;;17.46;39.80
20368;BME280;10343;52.402;9.796;2023-04-20T06:05:48;101405.03;;;17.04;41.15
20368;BME280;10343;52.402;9.796;2023-04-20T06:08:16;101415.28;;;16.43;42.17
20368;BME280;10343;52.402;9.796;2023-04-20T06:10:45;101410.09;;;16.39;42.48
20368;BME280;10343;52.402;9.796;2023-04-20T06:13:13;101417.03;;;17.17;41.03
20368;BME280;10343;52.402;9.796;2023-04-20T06:15:41;101400.03;;;17.18;40.45
20368;BME280;10343;52.402;9.796;2023-04-20T06:18:10;101397.16;;;18.70;38.43
20368;BME280;10343;52.402;9.796;2023-04-20T06:20:38;101389.44;;;20.63;35.17
20368;BME280;10343;52.402;9.796;2023-04-20T06:23:06;101390.69;;;19.33;36.80
20368;BME280;10343;52.402;9.796;2023-04-20T06:25:34;101381.00;;;20.53;34.93
20368;BME280;10343;52.402;9.796;2023-04-20T06:28:03;101385.38;;;20.38;34.92
20368;BME280;10343;52.402;9.796;2023-04-20T06:30:31;101377.94;;;20.43;35.09
20368;BME280;10343;52.402;9.796;2023-04-20T06:32:59;101376.84;;;20.97;33.96
20368;BME280;10343;52.402;9.796;2023-04-20T06:35:29;101392.69;;;19.47;36.58
20368;BME280;10343;52.402;9.796;2023-04-20T06:37:57;101385.50;;;19.65;35.87
20368;BME280;10343;52.402;9.796;2023-04-20T06:40:25;101397.50;;;18.23;37.74
20368;BME280;10343;52.402;9.796;2023-04-20T06:42:53;101388.44;;;19.05;37.49
20368;BME280;10343;52.402;9.796;2023-04-20T06:45:21;101387.47;;;19.44;36.87
20368;BME280;10343;52.402;9.796;2023-04-20T06:47:50;101390.47;;;19.18;38.19
20368;BME280;10343;52.402;9.796;2023-04-20T06:50:18;101391.19;;;19.41;37.93
20368;BME280;10343;52.402;9.796;2023-04-20T06:52:47;101396.13;;;19.68;36.87
20368;BME280;10343;52.402;9.796;2023-04-20T06:55:16;101404.19;;;17.92;39.55
20368;BME280;10343;52.402;9.796;2023-04-20T06:57:44;101400.03;;;18.46;39.58
20368;BME280;10343;52.402;9.796;2023-04-20T07:00:14;101389.25;;;19.26;38.00
20368;BME280;10343;52.402;9.796;2023-04-20T07:02:43;101399.00;;;20.35;35.88
20368;BME280;10343;52.402;9.796;2023-04-20T07:05:12;101401.22;;;19.18;37.15
20368;BME280;10343;52.402;9.796;2023-04-20T07:07:40;101396.34;;;19.82;36.80
20368;BME280;10343;52.402;9.796;2023-04-20T07:10:11;101398.53;;;20.27;35.97
20368;BME280;10343;52.402;9.796;2023-04-20T07:12:41;101401.66;;;19.65;36.70
20368;BME280;10343;52.402;9.796;2023-04-20T07:15:10;101406.50;;;19.39;36.53
20368;BME280;10343;52.402;9.796;2023-04-20T07:17:38;101405.09;;;20.90;33.93
20368;BME280;10343;52.402;9.796;2023-04-20T07:20:07;101393.91;;;21.13;33.65
20368;BME280;10343;52.402;9.796;2023-04-20T07:22:36;101404.41;;;19.82;35.00
20368;BME280;10343;52.402;9.796;2023-04-20T07:25:06;101408.56;;;18.96;36.90
20368;BME280;10343;52.402;9.796;2023-04-20T07:27:36;101409.00;;;19.25;36.05
20368;BME280;10343;52.402;9.796;2023-04-20T07:30:06;101412.16;;;17.71;38.35
20368;BME280;10343;52.402;9.796;2023-04-20T07:32:35;101415.22;;;18.27;37.96
20368;BME280;10343;52.402;9.796;2023-04-20T07:35:04;101418.09;;;18.22;38.26
20368;BME280;10343;52.402;9.796;2023-04-20T07:37:32;101416.22;;;18.24;38.30
20368;BME280;10343;52.402;9.796;2023-04-20T07:40:00;101421.28;;;18.32;38.46
20368;BME280;10343;52.402;9.796;2023-04-20T07:42:31;101411.38;;;19.87;35.67
20368;BME280;10343;52.402;9.796;2023-04-20T07:45:02;101411.75;;;19.42;36.24
20368;BME280;10343;52.402;9.796;2023-04-20T07:47:31;101414.66;;;19.74;35.34
20368;BME280;10343;52.402;9.796;2023-04-20T07:49:59;101411.00;;;20.63;34.26
20368;BME280;10343;52.402;9.796;2023-04-20T07:52:27;101410.09;;;20.80;33.45
20368;BME280;10343;52.402;9.796;2023-04-20T07:54:55;101409.41;;;20.76;33.80
20368;BME280;10343;52.402;9.796;2023-04-20T07:57:25;101409.81;;;21.34;32.61
20368;BME280;10343;52.402;9.796;2023-04-20T07:59:53;101411.78;;;19.41;35.63
20368;BME280;10343;52.402;9.796;2023-04-20T08:02:23;101419.91;;;18.01;37.83
20368;BME280;10343;52.402;9.796;2023-04-20T08:04:51;101423.13;;;18.50;36.95
20368;BME280;10343;52.402;9.796;2023-04-20T08:07:19;101411.66;;;20.50;34.00
20368;BME280;10343;52.402;9.796;2023-04-20T08:09:48;101412.75;;;20.64;33.36
20368;BME280;10343;52.402;9.796;2023-04-20T08:12:16;101406.41;;;21.14;32.07
20368;BME280;10343;52.402;9.796;2023-04-20T08:14:44;101410.66;;;21.50;31.63
20368;BME280;10343;52.402;9.796;2023-04-20T08:17:12;101416.69;;;21.55;31.42
20368;BME280;10343;52.402;9.796;2023-04-20T08:19:41;101409.56;;;21.54;30.42
20368;BME280;10343;52.402;9.796;2023-04-20T08:22:11;101411.28;;;21.71;30.32
20368;BME280;10343;52.402;9.796;2023-04-20T08:24:39;101423.88;;;20.40;31.91
20368;BME280;10343;52.402;9.796;2023-04-20T08:27:07;101426.88;;;20.34;32.10
20368;BME280;10343;52.402;9.796;2023-04-20T08:29:36;101422.56;;;20.65;31.66
20368;BME280;10343;52.402;9.796;2023-04-20T08:32:05;101423.63;;;20.27;31.55
20368;BME280;10343;52.402;9.796;2023-04-20T08:34:34;101430.91;;;17.73;36.01
20368;BME280;10343;52.402;9.796;2023-04-20T08:37:04;101434.72;;;18.51;35.32
20368;BME280;10343;52.402;9.796;2023-04-20T08:39:32;101431.09;;;19.12;34.24
20368;BME280;10343;52.402;9.796;2023-04-20T08:42:00;101417.78;;;19.65;33.26
20368;BME280;10343;52.402;9.796;2023-04-20T08:44:28;101433.38;;;20.47;32.30
20368;BME280;10343;52.402;9.796;2023-04-20T08:46:59;101422.75;;;21.11;31.49
20368;BME280;10343;52.402;9.796;2023-04-20T08:49:27;101416.63;;;21.57;30.69
20368;BME280;10343;52.402;9.796;2023-04-20T08:51:56;101426.06;;;19.43;33.34
20368;BME280;10343;52.402;9.796;2023-04-20T08:54:25;101416.75;;;19.87;33.11
20368;BME280;10343;52.402;9.796;2023-04-20T08:56:53;101425.91;;;19.46;33.33
20368;BME280;10343;52.402;9.796;2023-04-20T08:59:22;101423.97;;;19.67;33.31
20368;BME280;10343;52.402;9.796;2023-04-20T09:01:50;101413.22;;;21.21;30.80
20368;BME280;10343;52.402;9.796;2023-04-20T09:04:19;101417.94;;;20.16;30.54
20368;BME280;10343;52.402;9.796;2023-04-20T09:06:51;101420.63;;;21.96;29.15
20368;BME280;10343;52.402;9.796;2023-04-20T09:09:21;101424.31;;;21.79;28.86
20368;BME280;10343;52.402;9.796;2023-04-20T09:12:00;101418.72;;;22.43;28.22
20368;BME280;10343;52.402;9.796;2023-04-20T09:14:29;101418.13;;;22.08;28.88
20368;BME280;10343;52.402;9.796;2023-04-20T09:16:58;101416.16;;;22.26;28.53
20368;BME280;10343;52.402;9.796;2023-04-20T09:19:28;101421.03;;;21.74;29.32
20368;BME280;10343;52.402;9.796;2023-04-20T09:21:58;101428.75;;;21.80;29.27
20368;BME280;10343;52.402;9.796;2023-04-20T09:24:30;101430.78;;;21.61;29.63
20368;BME280;10343;52.402;9.796;2023-04-20T09:27:01;101420.44;;;21.99;28.40
20368;BME280;10343;52.402;9.796;2023-04-20T09:29:29;101425.91;;;21.67;28.61
20368;BME280;10343;52.402;9.796;2023-04-20T09:31:57;101426.84;;;21.66;28.43
20368;BME280;10343;52.402;9.796;2023-04-20T09:34:25;101423.06;;;23.32;26.33
20368;BME280;10343;52.402;9.796;2023-04-20T09:36:53;101425.97;;;23.56;26.31
20368;BME280;10343;52.402;9.796;2023-04-20T09:39:23;101428.97;;;22.67;26.71
20368;BME280;10343;52.402;9.796;2023-04-20T09:41:52;101434.16;;;22.70;26.92
20368;BME280;10343;52.402;9.796;2023-04-20T09:44:21;101430.28;;;22.45;27.00
20368;BME280;10343;52.402;9.796;2023-04-20T09:46:49;101428.50;;;22.30;27.53
20368;BME280;10343;52.402;9.796;2023-04-20T09:49:18;101416.63;;;22.77;26.83
20368;BME280;10343;52.402;9.796;2023-04-20T09:51:47;101423.06;;;22.46;27.19
20368;BME280;10343;52.402;9.796;2023-04-20T09:54:16;101430.31;;;22.88;26.18
20368;BME280;10343;52.402;9.796;2023-04-20T09:56:44;101422.94;;;21.24;27.84
20368;BME280;10343;52.402;9.796;2023-04-20T09:59:16;101417.78;;;21.83;27.44
20368;BME280;10343;52.402;9.796;2023-04-20T10:01:47;101424.22;;;22.11;27.07
20368;BME280;10343;52.402;9.796;2023-04-20T10:04:15;101413.03;;;22.17;27.20
20368;BME280;10343;52.402;9.796;2023-04-20T10:06:51;101417.34;;;21.43;28.12
20368;BME280;10343;52.402;9.796;2023-04-20T10:09:21;101433.19;;;21.49;28.47
20368;BME280;10343;52.402;9.796;2023-04-20T10:11:50;101416.59;;;23.35;26.20
20368;BME280;10343;52.402;9.796;2023-04-20T10:14:22;101421.44;;;23.01;26.47
20368;BME280;10343;52.402;9.796;2023-04-20T10:16:59;101424.97;;;21.99;27.42
20368;BME280;10343;52.402;9.796;2023-04-20T10:19:38;101429.41;;;22.30;27.01
20368;BME280;10343;52.402;9.796;2023-04-20T10:22:07;101428.97;;;23.10;26.20
20368;BME280;10343;52.402;9.796;2023-04-20T10:24:36;101436.69;;;23.31;25.61
20368;BME280;10343;52.402;9.796;2023-04-20T10:27:15;101432.47;;;23.12;25.29
20368;BME280;10343;52.402;9.796;2023-04-20T10:29:43;101438.94;;;21.27;28.08
20368;BME280;10343;52.402;9.796;2023-04-20T10:32:22;101432.16;;;21.36;27.98
20368;BME280;10343;52.402;9.796;2023-04-20T10:35:01;101432.78;;;20.76;28.72
20368;BME280;10343;52.402;9.796;2023-04-20T10:37:30;101426.75;;;21.04;28.58
20368;BME280;10343;52.402;9.796;2023-04-20T10:39:59;101423.38;;;21.32;28.68
20368;BME280;10343;52.402;9.796;2023-04-20T10:42:27;101416.25;;;22.69;26.18
20368;BME280;10343;52.402;9.796;2023-04-20T10:44:56;101413.22;;;22.45;26.53
20368;BME280;10343;52.402;9.796;2023-04-20T10:47:30;101416.16;;;21.33;27.12
20368;BME280;10343;52.402;9.796;2023-04-20T10:50:07;101410.94;;;20.98;27.84
20368;BME280;10343;52.402;9.796;2023-04-20T10:52:37;101408.25;;;20.98;28.10
20368;BME280;10343;52.402;9.796;2023-04-20T10:55:16;101406.00;;;21.84;27.12
20368;BME280;10343;52.402;9.796;2023-04-20T10:57:44;101402.72;;;22.69;26.30
20368;BME280;10343;52.402;9.796;2023-04-20T11:00:15;101414.41;;;21.00;28.67
20368;BME280;10343;52.402;9.796;2023-04-20T11:02:49;101416.41;;;23.09;26.10
20368;BME280;10343;52.402;9.796;2023-04-20T11:05:19;101418.75;;;21.82;27.46
20368;BME280;10343;52.402;9.796;2023-04-20T11:07:51;101420.56;;;22.12;27.16
20368;BME280;10343;52.402;9.796;2023-04-20T11:10:20;101405.50;;;23.52;25.70
20368;BME280;10343;52.402;9.796;2023-04-20T11:12:49;101423.19;;;23.02;25.90
20368;BME280;10343;52.402;9.796;2023-04-20T11:15:17;101413.91;;;23.75;25.33
20368;BME280;10343;52.402;9.796;2023-04-20T11:17:45;101397.47;;;23.23;25.47
20368;BME280;10343;52.402;9.796;2023-04-20T11:20:14;101411.56;;;22.42;26.24
20368;BME280;10343;52.402;9.796;2023-04-20T11:22:44;101404.81;;;21.74;27.05
20368;BME280;10343;52.402;9.796;2023-04-20T11:25:23;101400.22;;;21.12;28.32
20368;BME280;10343;52.402;9.796;2023-04-20T11:27:51;101405.59;;;20.63;28.60
20368;BME280;10343;52.402;9.796;2023-04-20T11:30:19;101391.94;;;22.10;27.50
20368;BME280;10343;52.402;9.796;2023-04-20T11:32:52;101398.19;;;22.69;26.33
20368;BME280;10343;52.402;9.796;2023-04-20T11:35:22;101393.72;;;23.66;25.59
20368;BME280;10343;52.402;9.796;2023-04-20T11:37:51;101386.91;;;23.33;26.12
20368;BME280;10343;52.402;9.796;2023-04-20T11:40:20;101380.25;;;24.06;25.16
20368;BME280;10343;52.402;9.796;2023-04-20T11:42:48;101374.41;;;23.45;25.36
20368;BME280;10343;52.402;9.796;2023-04-20T11:45:16;101374.06;;;23.37;25.66
20368;BME280;10343;52.402;9.796;2023-04-20T11:47:44;101377.81;;;22.35;26.52
20368;BME280;10343;52.402;9.796;2023-04-20T11:50:13;101370.91;;;23.01;25.86
20368;BME280;10343;52.402;9.796;2023-04-20T11:52:42;101368.41;;;22.98;25.77
20368;BME280;10343;52.402;9.796;2023-04-20T11:55:10;101367.53;;;23.27;25.05
20368;BME280;10343;52.402;9.796;2023-04-20T11:57:38;101364.47;;;22.32;26.11
20368;BME280;10343;52.402;9.796;2023-04-20T12:00:07;101359.59;;;21.63;26.81
20368;BME280;10343;52.402;9.796;2023-04-20T12:02:41;101354.09;;;22.69;25.70
20368;BME280;10343;52.402;9.796;2023-04-20T12:05:09;101348.31;;;23.17;25.32
20368;BME280;10343;52.402;9.796;2023-04-20T12:07:38;101350.97;;;22.89;26.25
20368;BME280;10343;52.402;9.796;2023-04-20T12:10:08;101345.41;;;23.47;25.43
20368;BME280;10343;52.402;9.796;2023-04-20T12:12:36;101357.31;;;22.16;26.66
20368;BME280;10343;52.402;9.796;2023-04-20T12:15:05;101350.38;;;22.70;26.24
20368;BME280;10343;52.402;9.796;2023-04-20T12:17:33;101359.59;;;22.53;26.56
20368;BME280;10343;52.402;9.796;2023-04-20T12:20:01;101345.75;;;24.47;24.78
20368;BME280;10343;52.402;9.796;2023-04-20T12:22:31;101348.38;;;23.30;25.78
20368;BME280;10343;52.402;9.796;2023-04-20T12:24:59;101334.06;;;23.28;25.61
20368;BME280;10343;52.402;9.796;2023-04-20T12:27:29;101333.38;;;22.82;25.84
20368;BME280;10343;52.402;9.796;2023-04-20T12:29:56;101328.13;;;22.37;26.89
20368;BME280;10343;52.402;9.796;2023-04-20T12:32:24;101332.91;;;22.18;27.10
20368;BME280;10343;52.402;9.796;2023-04-20T12:34:52;101335.47;;;21.91;27.45
20368;BME280;10343;52.402;9.796;2023-04-20T12:37:20;101326.75;;;23.30;25.95
20368;BME280;10343;52.402;9.796;2023-04-20T12:39:48;101319.78;;;23.93;25.21
20368;BME280;10343;52.402;9.796;2023-04-20T12:42:16;101315.50;;;23.36;25.44
20368;BME280;10343;52.402;9.796;2023-04-20T12:44:46;101314.22;;;23.00;25.71
20368;BME280;10343;52.402;9.796;2023-04-20T12:47:14;101309.69;;;24.21;24.80
20368;BME280;10343;52.402;9.796;2023-04-20T12:49:42;101305.66;;;24.52;24.29
20368;BME280;10343;52.402;9.796;2023-04-20T12:52:10;101308.25;;;24.54;24.14
20368;BME280;10343;52.402;9.796;2023-04-20T12:54:38;101308.47;;;24.38;24.59
20368;BME280;10343;52.402;9.796;2023-04-20T12:57:09;101307.81;;;24.47;24.68
20368;BME280;10343;52.402;9.796;2023-04-20T12:59:37;101308.19;;;24.17;24.77
20368;BME280;10343;52.402;9.796;2023-04-20T13:02:06;101301.78;;;24.31;24.62